Stations météo

Publicité
Lus-La-Croix-Haute, France (7587): Température de l'air & dewpoint: 16.09.2018 06:00:00 - 22.09.2018 06:00:00 (CEST)Lus-La-Croix-Haute, France (7587): Vitesse du vent & gusts: 16.09.2018 06:00:00 - 22.09.2018 06:00:00 (CEST)Lus-La-Croix-Haute, France (7587): Direction du vent: 16.09.2018 06:00:00 - 22.09.2018 06:00:00 (CEST)Lus-La-Croix-Haute, France (7587): Quantités de précipitations: 16.09.2018 06:00:00 - 22.09.2018 06:00:00 (CEST)
Date & Time tt [°C] td [°C] ff [km/h] ff [knt] fx [km/h] fx [knt] dd rr [mm]
22.09.2018 06:00:00 11,0 8,2 16 9 37 20 NW 0,0
22.09.2018 05:00:00 11,5 9,6 16 9 34 18 NW 0,0
22.09.2018 04:00:00 11,6 10,5 18 10 31 17 NW 0,0
22.09.2018 03:00:00 12,2 10,9 16 9 28 15 WNW 0,0
22.09.2018 02:00:00 13,3 11,0 5 3 21 11 NNW -
22.09.2018 01:00:00 13,9 11,2 9 5 28 15 NW 0,0
22.09.2018 00:00:00 14,6 11,2 16 9 29 16 NW 0,0
21.09.2018 23:00:00 14,5 11,5 16 9 35 19 NW 0,0
21.09.2018 22:00:00 15,2 12,5 11 6 31 17 NNW 0,0
21.09.2018 21:00:00 15,2 13,7 11 6 21 11 NNW 0,0
21.09.2018 20:00:00 16,4 13,9 5 3 52 28 NNW -
21.09.2018 19:00:00 21,7 9,9 13 7 29 16 NW 0,0
21.09.2018 18:00:00 22,5 8,9 11 6 37 20 WNW 0,0
21.09.2018 17:00:00 24,1 10,0 11 6 28 15 WNW 0,0
21.09.2018 16:00:00 25,5 10,1 11 6 35 19 WNW 0,0
21.09.2018 15:00:00 26,2 9,9 13 7 34 18 WNW 0,0
21.09.2018 14:00:00 25,7 9,1 8 4 29 16 W -
21.09.2018 13:00:00 25,8 10,4 5 3 18 10 SW 0,0
21.09.2018 12:00:00 23,9 9,8 4 2 13 7 SE 0,0
21.09.2018 11:00:00 18,6 11,4 2 1 8 4 NW 0,0
21.09.2018 10:00:00 13,1 11,8 0 0 5 3 N 0,0
21.09.2018 09:00:00 10,5 10,3 0 0 4 2 N 0,0
21.09.2018 08:00:00 8,6 8,3 2 1 5 3 SE -
21.09.2018 07:00:00 9,0 8,5 2 1 5 3 NNW 0,0
21.09.2018 06:00:00 9,3 8,8 4 2 5 3 N 0,0
21.09.2018 05:00:00 9,5 8,9 0 0 5 3 N 0,0
21.09.2018 04:00:00 10,1 9,5 0 0 5 3 N 0,0
21.09.2018 03:00:00 10,6 9,7 0 0 4 2 N 0,0
21.09.2018 02:00:00 11,5 10,2 2 1 8 4 N -
21.09.2018 01:00:00 11,9 10,1 2 1 5 3 SW 0,0
21.09.2018 00:00:00 12,7 10,2 2 1 5 3 N 0,0
20.09.2018 23:00:00 14,3 10,9 4 2 8 4 N 0,0
20.09.2018 22:00:00 15,4 10,8 0 0 9 5 N 0,0
20.09.2018 21:00:00 17,2 10,8 2 1 8 4 W 0,0
20.09.2018 20:00:00 20,1 11,0 4 2 24 13 N -
20.09.2018 19:00:00 22,2 11,3 13 7 29 16 NNW 0,0
20.09.2018 18:00:00 24,7 12,0 16 9 34 18 WNW 0,0
20.09.2018 17:00:00 24,0 11,3 11 6 26 14 NW 0,0
20.09.2018 16:00:00 25,2 11,4 15 8 28 15 WNW 0,0
20.09.2018 15:00:00 27,0 10,7 11 6 28 15 WNW 0,0
20.09.2018 14:00:00 25,6 9,8 15 8 35 19 WNW -
20.09.2018 13:00:00 23,9 10,9 18 10 35 19 WNW 0,0
20.09.2018 12:00:00 22,9 11,6 18 10 37 20 WNW 0,0
20.09.2018 11:00:00 21,7 12,3 11 6 28 15 NNW 0,0
20.09.2018 10:00:00 18,3 12,7 2 1 8 4 E 0,0
20.09.2018 09:00:00 13,3 11,9 0 0 9 5 N 0,2
20.09.2018 08:00:00 11,2 10,6 4 2 8 4 N -
20.09.2018 07:00:00 10,3 9,7 2 1 8 4 NNE 0,0
20.09.2018 06:00:00 10,7 9,9 4 2 8 4 N 0,0
20.09.2018 05:00:00 10,7 9,8 2 1 5 3 S 0,0
20.09.2018 04:00:00 11,1 9,8 2 1 8 4 ESE 0,0
20.09.2018 03:00:00 11,8 10,4 4 2 8 4 ESE 0,0
20.09.2018 02:00:00 12,7 10,8 2 1 8 4 NNW -
20.09.2018 01:00:00 13,5 10,7 2 1 8 4 E 0,0
20.09.2018 00:00:00 14,5 11,1 4 2 8 4 SSE 0,0
19.09.2018 23:00:00 16,2 11,6 4 2 15 8 E 0,0
19.09.2018 22:00:00 15,8 11,4 4 2 13 7 ESE 0,0
19.09.2018 21:00:00 17,2 11,5 4 2 9 5 N 0,0
19.09.2018 20:00:00 18,5 11,6 8 4 21 11 NNW -
19.09.2018 19:00:00 20,6 12,0 11 6 24 13 NW 0,0
19.09.2018 18:00:00 21,8 12,1 13 7 31 17 NW 0,0
19.09.2018 17:00:00 24,8 11,7 16 9 39 21 NW 0,0
19.09.2018 16:00:00 25,6 9,8 16 9 35 19 WNW 0,0
19.09.2018 15:00:00 25,5 9,7 16 9 37 20 WNW 0,0
19.09.2018 14:00:00 24,6 10,8 16 9 34 18 NW -
19.09.2018 13:00:00 23,8 11,1 13 7 28 15 WNW 0,0
19.09.2018 12:00:00 22,0 12,3 8 4 22 12 NNW 0,0
19.09.2018 11:00:00 19,8 14,8 4 2 9 5 NE 0,0
19.09.2018 10:00:00 15,2 13,9 2 1 5 3 W 0,0
19.09.2018 09:00:00 11,9 11,7 2 1 5 3 SSE 0,0
19.09.2018 08:00:00 10,3 10,1 2 1 5 3 N -
19.09.2018 07:00:00 10,0 9,7 0 0 8 4 N 0,0
19.09.2018 06:00:00 10,2 9,9 4 2 5 3 NNW 0,0
19.09.2018 05:00:00 10,5 10,2 0 0 8 4 N 0,0
19.09.2018 04:00:00 10,4 9,9 2 1 8 4 S 0,2
19.09.2018 03:00:00 10,8 10,2 2 1 8 4 SE 0,0
19.09.2018 02:00:00 11,6 11,0 0 0 8 4 N -
19.09.2018 01:00:00 12,3 11,0 0 0 9 5 N 0,0
19.09.2018 00:00:00 13,3 11,2 2 1 9 5 NNW 0,0
18.09.2018 23:00:00 14,0 11,3 0 0 5 3 N 0,0
18.09.2018 22:00:00 15,6 11,8 0 0 11 6 N 0,0
18.09.2018 21:00:00 17,4 12,1 4 2 11 6 N 0,0
18.09.2018 20:00:00 19,1 12,1 4 2 8 4 N -
18.09.2018 19:00:00 20,6 11,5 0 0 16 9 N 0,0
18.09.2018 18:00:00 23,2 10,3 4 2 24 13 WSW 0,0
18.09.2018 17:00:00 24,0 9,6 13 7 29 16 S 0,0
18.09.2018 16:00:00 24,8 9,5 16 9 35 19 S 0,0
18.09.2018 15:00:00 24,5 10,0 18 10 35 19 S 0,0
18.09.2018 14:00:00 23,7 11,1 16 9 39 21 SSW -
18.09.2018 13:00:00 23,9 11,2 15 8 34 18 SSW 0,0
18.09.2018 12:00:00 22,3 11,1 13 7 29 16 S 0,0
18.09.2018 11:00:00 20,0 11,7 13 7 28 15 SSW 0,0
18.09.2018 10:00:00 13,3 13,1 2 1 8 4 W 0,0
18.09.2018 09:00:00 9,3 9,2 4 2 8 4 ESE 0,0
18.09.2018 08:00:00 8,0 7,9 4 2 8 4 N -
18.09.2018 07:00:00 7,9 7,6 2 1 5 3 NE 0,0
18.09.2018 06:00:00 8,5 8,2 0 0 5 3 N 0,0
18.09.2018 05:00:00 8,8 8,2 0 0 5 3 N 0,0
18.09.2018 04:00:00 9,5 8,9 2 1 4 2 ENE 0,0
18.09.2018 03:00:00 10,3 9,8 0 0 4 2 N 0,2
18.09.2018 02:00:00 10,7 10,2 0 0 5 3 N -
18.09.2018 01:00:00 11,3 10,5 0 0 5 3 N 0,0
18.09.2018 00:00:00 12,2 10,8 0 0 8 4 N 0,0
17.09.2018 23:00:00 13,0 11,4 4 2 9 5 SE 0,0
17.09.2018 22:00:00 14,4 11,9 4 2 8 4 NE 0,0
17.09.2018 21:00:00 16,3 12,5 2 1 8 4 NNE 0,0
17.09.2018 20:00:00 19,1 12,8 4 2 16 9 SW -
17.09.2018 19:00:00 20,9 13,3 2 1 21 11 SSW 0,0
17.09.2018 18:00:00 22,9 13,1 5 3 26 14 WSW 0,0
17.09.2018 17:00:00 22,9 11,6 8 4 29 16 WSW 0,0
17.09.2018 16:00:00 24,9 10,7 16 9 31 17 S 0,0
17.09.2018 15:00:00 25,0 11,9 15 8 31 17 S 0,0
17.09.2018 14:00:00 23,9 12,2 13 7 29 16 S -
17.09.2018 13:00:00 23,0 13,2 15 8 26 14 S 0,0
17.09.2018 12:00:00 21,5 12,3 13 7 22 12 S 0,0
17.09.2018 11:00:00 19,9 13,4 8 4 16 9 S 0,0
17.09.2018 10:00:00 15,0 12,3 4 2 8 4 S 0,0
17.09.2018 09:00:00 11,5 11,2 0 0 4 2 N 0,0
17.09.2018 08:00:00 10,9 10,6 2 1 5 3 N -
17.09.2018 07:00:00 10,6 9,8 4 2 8 4 ESE 0,0
17.09.2018 06:00:00 11,5 10,9 2 1 5 3 N 0,0
17.09.2018 05:00:00 11,8 10,9 0 0 4 2 N 0,0
17.09.2018 04:00:00 12,2 11,3 0 0 8 4 N 0,0
17.09.2018 03:00:00 12,3 11,0 4 2 8 4 SSE 0,0
17.09.2018 02:00:00 12,8 11,4 2 1 9 5 SE -
17.09.2018 01:00:00 12,9 11,3 4 2 8 4 SE 0,0
17.09.2018 00:00:00 14,1 12,1 2 1 5 3 ENE 0,0
16.09.2018 23:00:00 15,2 12,0 0 0 5 3 N 0,0
16.09.2018 22:00:00 16,8 12,3 2 1 15 8 NNW 0,0
16.09.2018 21:00:00 17,3 12,4 9 5 18 10 NNW 0,0
16.09.2018 20:00:00 18,1 12,3 11 6 18 10 N -
16.09.2018 19:00:00 19,9 12,2 4 2 18 10 NNE 0,0
16.09.2018 18:00:00 21,0 10,8 8 4 24 13 SSW 0,0
16.09.2018 17:00:00 21,3 10,1 16 9 31 17 S 0,0
16.09.2018 16:00:00 24,3 11,3 11 6 26 14 S 0,0
16.09.2018 15:00:00 23,6 12,9 9 5 24 13 S 0,0
16.09.2018 14:00:00 22,5 13,6 9 5 22 12 S -
16.09.2018 13:00:00 20,8 13,5 9 5 22 12 S 0,0
16.09.2018 12:00:00 19,9 13,8 5 3 15 8 SSE 0,0
16.09.2018 11:00:00 15,0 12,5 2 1 8 4 W 0,0
16.09.2018 10:00:00 12,5 11,7 0 0 5 3 N 0,0
16.09.2018 09:00:00 11,0 10,8 0 0 4 2 N 0,0
16.09.2018 08:00:00 9,5 9,2 0 0 4 2 N -
16.09.2018 07:00:00 9,5 9,0 0 0 4 2 N 0,0
16.09.2018 06:00:00 9,9 9,4 0 0 8 4 N 0,0

tt = Température de l'air
td = dewpoint
ff = Vitesse du vent
fx = gusts
dd = Direction du vent
rr = Quantités de précipitations

stations d'obs. à proximité